Agana Heights, Guam
Current Conditions -  °F | °C
As of 5:54 PM on Sunday 26 Oct 2014 (Local Time) from PGUM Reporting Station
Scattered Clouds Scattered Clouds  
Wind Chill: 80°   Ceiling: Unl
Heat Index: 86°   Visibility: 10mi
Dew Point: 77°   Wind: 6mph
Humidity: 90%   Direction: 70°ENE
Pressure: 29.84"   Gusts: NA
Location:  13.47°N, 144.74°E
Report Text: PGUM 260754Z 07005KT 10SM FEW020 SCT120 27/25 A2984 RMK AO2 SLP096 T02670250 $
Loading
Personal Weather Stations






























Interactive Weather Map New forecast layout! Learn more

10-Day Weather Forecast

Advertisements
Track Severe Weather on mobile